createdAt,value
2023-05-19T00:02:24.342Z,15.80
2023-05-19T00:05:16.263Z,15.78
2023-05-19T00:07:49.898Z,15.79
2023-05-19T00:10:32.008Z,15.80
2023-05-19T00:13:03.881Z,15.83
2023-05-19T00:15:35.957Z,15.81
2023-05-19T00:18:04.164Z,15.85
2023-05-19T00:20:37.285Z,15.82
2023-05-19T00:23:10.990Z,15.83
2023-05-19T00:25:46.350Z,15.82
2023-05-19T00:28:14.683Z,15.81
2023-05-19T00:30:42.973Z,15.82
2023-05-19T00:33:11.628Z,15.83
2023-05-19T00:35:47.490Z,15.81
2023-05-19T00:38:21.561Z,15.80
2023-05-19T00:40:52.195Z,15.77
2023-05-19T00:43:41.256Z,15.77
2023-05-19T00:46:13.940Z,15.79
2023-05-19T00:48:44.754Z,15.79
2023-05-19T00:51:16.988Z,15.77
2023-05-19T00:53:59.236Z,15.76
2023-05-19T00:56:28.986Z,15.76
2023-05-19T00:58:58.532Z,15.77
2023-05-19T01:01:28.031Z,15.76
2023-05-19T01:04:00.087Z,15.80
2023-05-19T01:06:29.783Z,15.84
2023-05-19T01:08:58.726Z,15.85
2023-05-19T01:11:28.202Z,15.83
2023-05-19T01:13:56.822Z,15.85
2023-05-19T01:16:30.860Z,15.84
2023-05-19T01:19:11.123Z,15.82
2023-05-19T01:22:08.060Z,15.84
2023-05-19T01:25:01.576Z,15.82
2023-05-19T01:27:45.649Z,15.80
2023-05-19T01:30:27.219Z,15.80
2023-05-19T01:32:59.503Z,15.74
2023-05-19T01:35:28.818Z,15.69
2023-05-19T01:38:00.251Z,15.68
2023-05-19T01:40:30.438Z,15.64
2023-05-19T01:43:01.160Z,15.63
2023-05-19T01:45:32.980Z,15.65
2023-05-19T01:48:04.363Z,15.66
2023-05-19T01:50:33.709Z,15.63
2023-05-19T01:53:02.896Z,15.59
2023-05-19T01:55:31.340Z,15.59
2023-05-19T01:58:11.730Z,15.58
2023-05-19T02:00:52.727Z,15.61
2023-05-19T02:03:32.618Z,15.61
2023-05-19T02:06:11.307Z,15.59
2023-05-19T02:08:44.248Z,15.55
2023-05-19T02:11:21.777Z,15.58
2023-05-19T02:13:53.441Z,15.59
2023-05-19T02:16:28.036Z,15.63
2023-05-19T02:18:57.559Z,15.63
2023-05-19T02:21:25.957Z,15.68
2023-05-19T02:23:54.114Z,15.66
2023-05-19T02:26:22.917Z,15.69
2023-05-19T02:28:51.113Z,15.65
2023-05-19T02:31:19.248Z,15.67
2023-05-19T02:33:48.878Z,15.67
2023-05-19T02:36:17.219Z,15.69
2023-05-19T02:38:45.381Z,15.68
2023-05-19T02:41:13.566Z,15.65
2023-05-19T02:43:41.788Z,15.66
2023-05-19T02:46:09.967Z,15.63
2023-05-19T02:48:38.250Z,15.62
2023-05-19T02:51:07.910Z,15.58
2023-05-19T02:53:36.124Z,15.55
2023-05-19T02:56:04.591Z,15.54
2023-05-19T02:58:32.823Z,15.52
2023-05-19T03:01:01.079Z,15.49
2023-05-19T03:03:29.279Z,15.47
2023-05-19T03:05:57.487Z,15.45
2023-05-19T03:08:27.366Z,15.47
2023-05-19T03:10:55.569Z,15.48
2023-05-19T03:13:23.889Z,15.50
2023-05-19T03:15:52.027Z,15.49
2023-05-19T03:18:20.274Z,15.53
2023-05-19T03:20:48.585Z,15.54
2023-05-19T03:23:16.907Z,15.50
2023-05-19T03:25:46.443Z,15.52
2023-05-19T03:28:14.644Z,15.53
2023-05-19T03:30:42.783Z,15.56
2023-05-19T03:33:11.197Z,15.58
2023-05-19T03:35:39.579Z,15.63
2023-05-19T03:38:07.735Z,15.69
2023-05-19T03:40:35.863Z,15.77
2023-05-19T03:43:05.589Z,15.84
2023-05-19T03:45:33.823Z,15.91
2023-05-19T03:48:02.048Z,16.05
2023-05-19T03:50:32.000Z,16.19
2023-05-19T03:53:00.541Z,16.31
2023-05-19T03:55:29.947Z,16.41
2023-05-19T03:57:58.314Z,16.54
2023-05-19T04:00:27.829Z,16.69
2023-05-19T04:02:56.245Z,16.80
2023-05-19T04:05:24.492Z,16.87
2023-05-19T04:07:53.100Z,16.89
2023-05-19T04:10:21.437Z,16.95
2023-05-19T04:12:49.699Z,16.90
2023-05-19T04:15:17.961Z,16.88
2023-05-19T04:17:47.769Z,16.86
2023-05-19T04:20:17.179Z,16.86
2023-05-19T04:22:45.580Z,16.83
2023-05-19T04:25:13.823Z,16.83
2023-05-19T04:27:42.577Z,16.86
2023-05-19T04:30:12.209Z,16.87
2023-05-19T04:32:41.665Z,16.93
2023-05-19T04:35:23.601Z,16.99
2023-05-19T04:37:54.416Z,17.06
2023-05-19T04:40:23.949Z,17.11
2023-05-19T04:42:53.036Z,17.19
2023-05-19T04:45:21.246Z,17.22
2023-05-19T04:47:49.447Z,17.31
2023-05-19T04:50:19.122Z,17.38
2023-05-19T04:52:47.297Z,17.49
2023-05-19T04:55:16.035Z,17.58
2023-05-19T04:57:44.702Z,17.66
2023-05-19T05:00:14.627Z,17.80
2023-05-19T05:02:43.656Z,17.88
2023-05-19T05:05:12.070Z,17.97
2023-05-19T05:07:41.912Z,18.06
2023-05-19T05:10:11.562Z,18.15
2023-05-19T05:12:40.370Z,18.25
2023-05-19T05:15:09.946Z,18.31
2023-05-19T05:17:38.714Z,18.36
2023-05-19T05:20:08.524Z,18.46
2023-05-19T05:22:38.700Z,18.50
2023-05-19T05:25:10.335Z,18.53
2023-05-19T05:27:38.602Z,18.58
2023-05-19T05:30:07.791Z,18.68
2023-05-19T05:32:36.025Z,18.77
2023-05-19T05:35:04.340Z,18.83
2023-05-19T05:37:32.653Z,18.91
2023-05-19T05:40:00.812Z,18.98
2023-05-19T05:42:30.360Z,19.03
2023-05-19T05:44:58.468Z,19.10
2023-05-19T05:47:27.209Z,19.19
2023-05-19T05:49:56.052Z,19.26
2023-05-19T05:52:28.980Z,19.37
2023-05-19T05:54:58.058Z,19.47
2023-05-19T05:57:27.089Z,19.57
2023-05-19T05:59:56.729Z,19.70
2023-05-19T06:02:24.980Z,19.83
2023-05-19T06:04:54.224Z,19.97
2023-05-19T06:07:22.908Z,20.07
2023-05-19T06:09:51.214Z,20.15
2023-05-19T06:12:19.408Z,20.26
2023-05-19T06:14:47.754Z,20.31
2023-05-19T06:17:17.352Z,20.40
2023-05-19T06:19:45.594Z,20.44
2023-05-19T06:22:13.691Z,20.53
2023-05-19T06:24:41.963Z,20.65
2023-05-19T06:27:10.164Z,20.74
2023-05-19T06:29:38.356Z,20.85
2023-05-19T06:32:06.669Z,20.98
2023-05-19T06:34:38.367Z,21.11
2023-05-19T06:37:06.461Z,21.15
2023-05-19T06:39:34.489Z,21.18
2023-05-19T06:42:02.524Z,21.15
2023-05-19T06:44:30.652Z,21.18
2023-05-19T06:46:58.898Z,21.24
2023-05-19T06:49:29.436Z,21.33
2023-05-19T06:51:59.110Z,21.44
2023-05-19T06:54:27.277Z,21.57
2023-05-19T06:56:55.780Z,21.67
2023-05-19T06:59:23.959Z,21.74
2023-05-19T07:01:52.107Z,21.84
2023-05-19T07:04:20.248Z,21.92
2023-05-19T07:06:50.257Z,22.03
2023-05-19T07:09:22.250Z,22.02
2023-05-19T07:11:50.368Z,22.05
2023-05-19T07:14:18.551Z,21.97
2023-05-19T07:16:46.771Z,21.90
2023-05-19T07:19:15.097Z,21.87
2023-05-19T07:21:43.653Z,21.96
2023-05-19T07:24:11.747Z,22.07
2023-05-19T07:26:42.651Z,22.23
2023-05-19T07:29:10.779Z,22.42
2023-05-19T07:31:38.974Z,22.40
2023-05-19T07:34:07.146Z,22.28
2023-05-19T07:36:35.385Z,22.24
2023-05-19T07:39:04.220Z,22.34
2023-05-19T07:41:33.828Z,22.43
2023-05-19T07:44:07.583Z,22.49
2023-05-19T07:46:36.219Z,22.70
2023-05-19T07:49:04.550Z,22.78
2023-05-19T07:51:32.767Z,22.81
2023-05-19T07:54:01.173Z,22.92
2023-05-19T07:56:29.588Z,23.18
2023-05-19T07:58:57.876Z,23.32
2023-05-19T08:01:28.362Z,23.45
2023-05-19T08:03:56.617Z,23.54
2023-05-19T08:06:25.430Z,23.70
2023-05-19T08:08:54.318Z,23.78
2023-05-19T08:11:22.678Z,23.91
2023-05-19T08:13:51.018Z,23.97
2023-05-19T08:16:19.162Z,23.87
2023-05-19T08:18:49.104Z,23.92
2023-05-19T08:21:20.060Z,23.99
2023-05-19T08:24:21.149Z,24.13
2023-05-19T08:26:49.440Z,24.36
2023-05-19T08:29:17.659Z,24.48
2023-05-19T08:31:58.571Z,24.46
2023-05-19T08:34:48.785Z,24.57
2023-05-19T08:37:17.223Z,24.78
2023-05-19T08:39:45.559Z,24.97
2023-05-19T08:42:14.172Z,25.28
2023-05-19T08:44:44.134Z,25.60
2023-05-19T08:47:28.246Z,25.86
2023-05-19T08:50:11.326Z,26.05
2023-05-19T08:52:52.415Z,26.27
2023-05-19T08:55:41.840Z,26.30
2023-05-19T08:58:38.534Z,26.41
2023-05-19T09:01:16.122Z,26.40
2023-05-19T09:03:53.932Z,26.52
2023-05-19T09:06:45.489Z,26.52
2023-05-19T09:09:13.950Z,26.40
2023-05-19T09:11:45.248Z,26.35
2023-05-19T09:14:16.092Z,26.38
2023-05-19T09:16:50.038Z,26.31
2023-05-19T09:19:21.489Z,26.29
2023-05-19T09:22:28.037Z,26.37
2023-05-19T09:25:25.378Z,26.31
2023-05-19T09:28:37.525Z,26.27
2023-05-19T09:31:15.855Z,26.13
2023-05-19T09:34:00.579Z,26.03
2023-05-19T09:39:53.240Z,26.03
2023-05-19T09:42:30.438Z,26.00
2023-05-19T09:45:02.702Z,25.92
2023-05-19T09:47:43.836Z,25.97
2023-05-19T09:50:17.330Z,26.03
2023-05-19T09:52:51.724Z,26.04
2023-05-19T09:55:23.299Z,26.07
2023-05-19T09:57:53.003Z,26.19
2023-05-19T10:00:27.026Z,26.36
2023-05-19T10:02:57.692Z,26.46
2023-05-19T10:05:28.982Z,26.64
2023-05-19T10:07:57.561Z,26.94
2023-05-19T10:10:29.092Z,27.13
2023-05-19T10:13:08.732Z,27.29
2023-05-19T10:15:58.937Z,27.27
2023-05-19T10:18:29.811Z,27.29
2023-05-19T10:21:08.186Z,27.25
2023-05-19T10:23:39.830Z,27.38
2023-05-19T10:26:11.441Z,27.54
2023-05-19T10:28:48.873Z,27.59
2023-05-19T10:31:20.806Z,27.69
2023-05-19T10:34:06.677Z,27.70
2023-05-19T10:36:47.654Z,27.82
2023-05-19T10:39:28.247Z,27.81
2023-05-19T10:42:09.085Z,27.66
2023-05-19T10:45:07.969Z,27.49
2023-05-19T10:47:45.575Z,27.54
2023-05-19T10:50:19.708Z,27.42
2023-05-19T10:52:58.064Z,27.39
2023-05-19T10:55:59.087Z,27.27
2023-05-19T10:59:01.696Z,27.27
2023-05-19T11:01:45.485Z,27.21
2023-05-19T11:04:16.146Z,27.14
2023-05-19T11:06:57.190Z,26.85
2023-05-19T11:09:40.045Z,26.74
2023-05-19T11:12:11.996Z,26.79
2023-05-19T11:15:01.387Z,26.88
2023-05-19T11:17:31.434Z,26.97
2023-05-19T11:20:00.948Z,27.16
2023-05-19T11:22:39.576Z,27.43
2023-05-19T11:25:09.193Z,27.66
2023-05-19T11:27:41.463Z,27.89
2023-05-19T11:30:17.963Z,28.09
2023-05-19T11:32:49.730Z,28.33
2023-05-19T11:35:28.437Z,28.45
2023-05-19T11:37:57.666Z,28.51
2023-05-19T11:40:30.296Z,28.66
2023-05-19T11:43:25.054Z,28.67
2023-05-19T11:49:10.670Z,29.04
2023-05-19T11:51:40.935Z,28.99
2023-05-19T11:54:27.781Z,28.90
2023-05-19T11:56:56.077Z,28.90
2023-05-19T11:59:36.258Z,28.72
2023-05-19T12:02:20.107Z,28.75
2023-05-19T12:04:58.174Z,28.98
2023-05-19T12:07:33.611Z,29.17
2023-05-19T12:10:06.445Z,29.44
2023-05-19T12:12:36.609Z,29.60
2023-05-19T12:15:07.386Z,29.81
2023-05-19T12:17:37.490Z,29.83
2023-05-19T12:20:14.078Z,29.95
2023-05-19T12:23:02.728Z,30.21
2023-05-19T12:25:32.082Z,30.40
2023-05-19T12:28:03.577Z,30.50
2023-05-19T12:30:33.628Z,30.58
2023-05-19T12:33:05.181Z,30.60
2023-05-19T12:35:34.492Z,30.93
2023-05-19T12:38:07.862Z,31.38
2023-05-19T12:40:37.528Z,31.69
2023-05-19T12:43:07.014Z,31.96
2023-05-19T12:45:39.023Z,32.07
2023-05-19T12:48:16.066Z,32.15
2023-05-19T12:50:45.290Z,32.37
2023-05-19T12:53:13.860Z,32.70
2023-05-19T12:55:43.775Z,33.20
2023-05-19T12:58:12.693Z,34.04
2023-05-19T13:00:45.291Z,35.10
2023-05-19T13:03:22.386Z,36.10
2023-05-19T13:05:52.406Z,37.05
2023-05-19T13:08:30.026Z,37.85
2023-05-19T13:10:58.359Z,38.96
2023-05-19T13:13:27.063Z,39.78
2023-05-19T13:15:58.539Z,40.26
2023-05-19T13:21:18.669Z,42.49
2023-05-19T13:23:46.834Z,43.33
2023-05-19T13:26:24.386Z,43.81
2023-05-19T13:28:55.715Z,43.90
2023-05-19T13:31:29.125Z,42.16
2023-05-19T13:34:01.384Z,40.40
2023-05-19T13:36:33.417Z,38.58
2023-05-19T13:42:15.747Z,34.22
2023-05-19T13:44:48.725Z,32.19
2023-05-19T13:47:29.983Z,30.25
2023-05-19T13:49:59.776Z,28.17
2023-05-19T13:52:29.790Z,26.59
2023-05-19T13:55:06.451Z,25.15
2023-05-19T13:57:41.596Z,23.84
2023-05-19T14:00:24.439Z,22.69
2023-05-19T14:02:52.994Z,21.90
2023-05-19T14:05:23.230Z,21.12
2023-05-19T14:07:57.812Z,20.59
2023-05-19T14:10:46.161Z,19.95
2023-05-19T14:13:32.595Z,19.67
2023-05-19T14:16:02.972Z,19.62
2023-05-19T14:18:32.526Z,19.60
2023-05-19T14:21:02.262Z,19.54
2023-05-19T14:23:30.812Z,19.61
2023-05-19T14:25:59.055Z,19.72
2023-05-19T14:28:27.464Z,19.79
2023-05-19T14:30:55.627Z,19.81
2023-05-19T14:33:24.138Z,19.94
2023-05-19T14:36:00.347Z,20.15
2023-05-19T14:38:29.930Z,20.42
2023-05-19T14:40:58.214Z,20.72
2023-05-19T14:43:26.290Z,21.04
2023-05-19T14:45:54.352Z,21.41
2023-05-19T14:48:22.457Z,21.90
2023-05-19T14:50:50.644Z,22.58
2023-05-19T14:53:18.738Z,24.07
2023-05-19T14:55:50.271Z,25.81
2023-05-19T14:58:28.160Z,27.95
2023-05-19T15:00:59.132Z,30.36
2023-05-19T15:03:27.355Z,32.25
2023-05-19T15:05:55.394Z,33.89
2023-05-19T15:08:23.503Z,35.48
2023-05-19T15:10:52.842Z,36.31
2023-05-19T15:13:21.576Z,36.77
2023-05-19T15:15:49.754Z,37.06
2023-05-19T15:18:18.870Z,37.28
2023-05-19T15:20:46.906Z,37.86
2023-05-19T15:23:14.970Z,39.00
2023-05-19T15:25:43.092Z,40.26
2023-05-19T15:28:13.674Z,41.14
2023-05-19T15:30:42.971Z,40.25
2023-05-19T15:33:11.797Z,38.47
2023-05-19T15:35:39.915Z,36.59
2023-05-19T15:38:08.001Z,34.89
2023-05-19T15:40:36.324Z,33.43
2023-05-19T15:43:04.361Z,32.11
2023-05-19T15:45:33.914Z,30.85
2023-05-19T15:48:01.942Z,29.63
2023-05-19T15:50:30.287Z,28.73
2023-05-19T15:52:58.456Z,27.94
2023-05-19T15:55:26.645Z,27.27
2023-05-19T15:57:54.562Z,26.80
2023-05-19T16:00:22.815Z,26.51
2023-05-19T16:02:53.779Z,26.23
2023-05-19T16:05:21.988Z,25.93
2023-05-19T16:07:50.005Z,25.67
2023-05-19T16:10:18.152Z,25.43
2023-05-19T16:12:46.171Z,25.21
2023-05-19T16:15:14.216Z,25.02
2023-05-19T16:17:42.277Z,24.83
2023-05-19T16:20:12.711Z,24.65
2023-05-19T16:22:40.746Z,24.49
2023-05-19T16:25:09.774Z,24.31
2023-05-19T16:27:37.689Z,24.04
2023-05-19T16:30:06.654Z,23.85
2023-05-19T16:32:34.768Z,23.61
2023-05-19T16:35:02.945Z,23.29
2023-05-19T16:37:32.422Z,23.03
2023-05-19T16:40:00.432Z,22.86
2023-05-19T16:42:28.539Z,22.81
2023-05-19T16:44:56.855Z,22.80
2023-05-19T16:47:24.946Z,22.78
2023-05-19T16:49:53.068Z,22.76
2023-05-19T16:52:21.062Z,22.68
2023-05-19T16:54:50.462Z,22.55
2023-05-19T16:57:18.526Z,22.41
2023-05-19T16:59:46.487Z,22.37
2023-05-19T17:02:14.595Z,22.42
2023-05-19T17:04:42.639Z,22.45
2023-05-19T17:07:15.520Z,22.46
2023-05-19T17:09:43.730Z,22.42
2023-05-19T17:12:13.379Z,22.35
2023-05-19T17:14:42.340Z,22.24
2023-05-19T17:17:10.595Z,22.10
2023-05-19T17:19:38.655Z,21.96
2023-05-19T17:22:06.632Z,21.87
2023-05-19T17:24:34.555Z,21.77
2023-05-19T17:27:02.799Z,21.63
2023-05-19T17:29:32.319Z,21.42
2023-05-19T17:32:00.458Z,21.25
2023-05-19T17:34:30.107Z,21.11
2023-05-19T17:36:58.188Z,20.92
2023-05-19T17:39:26.279Z,20.71
2023-05-19T17:41:54.262Z,20.56
2023-05-19T17:44:22.308Z,20.37
2023-05-19T17:46:51.827Z,20.18
2023-05-19T17:49:20.073Z,19.98
2023-05-19T17:51:48.532Z,19.73
2023-05-19T17:54:17.120Z,19.55
2023-05-19T17:56:46.453Z,19.37
2023-05-19T17:59:14.769Z,19.17
2023-05-19T18:01:43.454Z,19.01
2023-05-19T18:04:16.501Z,18.83
2023-05-19T18:06:45.820Z,18.70
2023-05-19T18:09:15.059Z,18.60
2023-05-19T18:11:43.064Z,18.48
2023-05-19T18:14:11.524Z,18.35
2023-05-19T18:16:39.551Z,18.23
2023-05-19T18:19:07.806Z,18.11
2023-05-19T18:21:37.269Z,17.98
2023-05-19T18:24:05.954Z,17.87
2023-05-19T18:26:34.287Z,17.77
2023-05-19T18:29:04.908Z,17.69
2023-05-19T18:31:33.162Z,17.65
2023-05-19T18:34:01.175Z,17.61
2023-05-19T18:36:29.182Z,17.55
2023-05-19T18:39:00.567Z,17.43
2023-05-19T18:41:28.968Z,17.34
2023-05-19T18:43:56.945Z,17.20
2023-05-19T18:46:25.296Z,17.13
2023-05-19T18:48:53.380Z,17.09
2023-05-19T18:51:21.815Z,17.08
2023-05-19T18:53:50.660Z,17.08
2023-05-19T18:56:26.110Z,17.02
2023-05-19T18:58:54.305Z,16.99
2023-05-19T19:01:22.349Z,16.95
2023-05-19T19:03:50.644Z,16.79
2023-05-19T19:06:20.662Z,16.63
2023-05-19T19:08:48.781Z,16.49
2023-05-19T19:11:16.794Z,16.41
2023-05-19T19:13:46.386Z,16.33
2023-05-19T19:16:14.444Z,16.29
2023-05-19T19:18:42.409Z,16.24
2023-05-19T19:21:10.370Z,16.18
2023-05-19T19:23:39.403Z,16.14
2023-05-19T19:26:08.559Z,16.11
2023-05-19T19:28:37.058Z,16.08
2023-05-19T19:31:06.564Z,16.05
2023-05-19T19:33:34.705Z,16.01
2023-05-19T19:36:02.758Z,15.95
2023-05-19T19:38:30.905Z,15.92
2023-05-19T19:40:59.190Z,15.90
2023-05-19T19:43:27.333Z,15.91
2023-05-19T19:46:00.681Z,15.91
2023-05-19T19:48:30.164Z,15.91
2023-05-19T19:50:58.648Z,15.98
2023-05-19T19:53:27.049Z,16.01
2023-05-19T19:55:59.375Z,16.07
2023-05-19T19:58:28.265Z,16.15
2023-05-19T20:00:59.778Z,16.19
2023-05-19T20:03:29.610Z,16.26
2023-05-19T20:05:58.151Z,16.35
2023-05-19T20:08:26.991Z,16.44
2023-05-19T20:10:55.455Z,16.53
2023-05-19T20:13:23.800Z,16.64
2023-05-19T20:15:51.841Z,16.76
2023-05-19T20:18:19.862Z,16.93
2023-05-19T20:20:49.219Z,17.16
2023-05-19T20:23:17.230Z,17.30
2023-05-19T20:26:02.343Z,17.37
2023-05-19T20:28:35.032Z,17.42
2023-05-19T20:31:03.237Z,17.42
2023-05-19T20:33:31.775Z,17.37
2023-05-19T20:36:01.349Z,17.31
2023-05-19T20:38:29.304Z,17.16
2023-05-19T20:40:57.341Z,16.94
2023-05-19T20:43:25.555Z,16.78
2023-05-19T20:45:53.532Z,16.64
2023-05-19T20:48:21.712Z,16.50
2023-05-19T20:50:49.704Z,16.42
2023-05-19T20:53:21.295Z,16.36
2023-05-19T20:55:49.585Z,16.38
2023-05-19T20:58:17.621Z,16.41
2023-05-19T21:00:45.603Z,16.45
2023-05-19T21:03:13.790Z,16.65
2023-05-19T21:05:41.844Z,16.86
2023-05-19T21:08:12.792Z,17.09
2023-05-19T21:10:42.511Z,17.34
2023-05-19T21:13:10.468Z,17.60
2023-05-19T21:15:38.658Z,17.68
2023-05-19T21:18:07.857Z,17.67
2023-05-19T21:20:35.982Z,17.66
2023-05-19T21:23:04.146Z,17.64
2023-05-19T21:25:32.457Z,17.63
2023-05-19T21:28:01.779Z,17.56
2023-05-19T21:30:29.771Z,17.45
2023-05-19T21:32:57.989Z,17.37
2023-05-19T21:35:26.057Z,17.27
2023-05-19T21:37:54.146Z,17.17
2023-05-19T21:40:22.209Z,17.08
2023-05-19T21:42:50.213Z,17.01
2023-05-19T21:45:19.704Z,16.93
2023-05-19T21:47:47.987Z,16.85
2023-05-19T21:50:17.472Z,16.75
2023-05-19T21:52:45.524Z,16.65
2023-05-19T21:55:13.521Z,16.50
2023-05-19T21:57:41.664Z,16.39
2023-05-19T22:00:13.154Z,16.30
2023-05-19T22:02:43.128Z,16.17
2023-05-19T22:05:12.019Z,16.05
2023-05-19T22:07:39.983Z,15.98
2023-05-19T22:10:08.928Z,15.89
2023-05-19T22:12:36.993Z,15.84
2023-05-19T22:15:06.573Z,15.81
2023-05-19T22:17:34.552Z,15.79
2023-05-19T22:20:04.058Z,15.75
2023-05-19T22:22:32.275Z,15.71
2023-05-19T22:25:00.388Z,15.67
2023-05-19T22:27:28.526Z,15.62
2023-05-19T22:29:56.684Z,15.57
2023-05-19T22:32:24.811Z,15.52
2023-05-19T22:34:52.937Z,15.45
2023-05-19T22:37:24.258Z,15.38
2023-05-19T22:39:52.365Z,15.36
2023-05-19T22:42:20.530Z,15.32
2023-05-19T22:44:48.672Z,15.23
2023-05-19T22:47:16.665Z,15.12
2023-05-19T22:49:44.874Z,15.02
2023-05-19T22:52:13.098Z,15.02
2023-05-19T22:54:42.459Z,15.00
2023-05-19T22:57:10.586Z,14.98
2023-05-19T22:59:38.771Z,14.90
2023-05-19T23:02:07.076Z,14.89
2023-05-19T23:04:35.689Z,14.89
2023-05-19T23:07:03.944Z,14.89
2023-05-19T23:09:32.077Z,14.89
2023-05-19T23:12:01.417Z,14.85
2023-05-19T23:14:29.509Z,14.81
2023-05-19T23:16:57.640Z,14.78
2023-05-19T23:19:25.813Z,14.75
2023-05-19T23:21:53.783Z,14.74
2023-05-19T23:24:21.909Z,14.70
2023-05-19T23:26:50.081Z,14.65
2023-05-19T23:29:19.568Z,14.61
2023-05-19T23:31:47.821Z,14.58
2023-05-19T23:34:16.032Z,14.55
2023-05-19T23:36:44.009Z,14.52
2023-05-19T23:39:13.541Z,14.48
2023-05-19T23:41:41.533Z,14.42
2023-05-19T23:44:09.948Z,14.34
2023-05-19T23:46:39.386Z,14.26
2023-05-19T23:49:07.449Z,14.24
2023-05-19T23:51:35.601Z,14.21
2023-05-19T23:54:03.595Z,14.19
2023-05-19T23:56:31.699Z,14.18
2023-05-19T23:58:59.736Z,14.15
